Time;durP1;ratioP1;P1;durP2;ratioP2;P2;SDS_P1;SDS_P2;PMS_P1;PMS_P2;Temp;Humidity;BMP_temperature;BMP_pressure;BME280_temperature;BME280_humidity;BME280_pressure;Samples;Min_cycle;Max_cycle;Signal;HPM_P1;HPM_P2
2023/12/20 00:00:22;;;;;;;15.98;10.07;;;;;;;;;;1041424;28;20671;-69
2023/12/20 00:01:13;;;;;;;16.70;9.60;;;;;;;;;;1038628;28;20081;-69
2023/12/20 00:01:49;;;;;;;15.60;9.75;;;;;;;;;;1039505;28;20057;-69
2023/12/20 00:02:19;;;;;;;15.60;9.73;;;;;;;;;;1041137;28;20053;-69
2023/12/20 00:02:50;;;;;;;15.95;9.68;;;;;;;;;;1040224;28;20079;-69
2023/12/20 00:03:20;;;;;;;16.33;10.32;;;;;;;;;;1038876;28;20053;-69
2023/12/20 00:03:51;;;;;;;14.02;9.48;;;;;;;;;;1038156;28;20049;-69
2023/12/20 00:04:22;;;;;;;17.08;9.85;;;;;;;;;;1039853;28;20055;-69
2023/12/20 00:04:52;;;;;;;15.80;9.63;;;;;;;;;;1039668;28;20049;-68
2023/12/20 00:05:22;;;;;;;15.32;10.23;;;;;;;;;;1038135;28;20045;-69
2023/12/20 00:05:53;;;;;;;15.27;10.27;;;;;;;;;;1039389;28;20072;-70
2023/12/20 00:06:24;;;;;;;24.45;10.25;;;;;;;;;;1038436;28;20146;-69
2023/12/20 00:06:54;;;;;;;17.88;11.25;;;;;;;;;;1038583;28;20046;-68
2023/12/20 00:07:24;;;;;;;13.60;9.73;;;;;;;;;;1039017;28;20045;-69
2023/12/20 00:07:55;;;;;;;16.58;10.48;;;;;;;;;;1038105;28;20037;-68
2023/12/20 00:08:26;;;;;;;15.38;9.18;;;;;;;;;;1037825;28;20069;-69
2023/12/20 00:08:57;;;;;;;14.35;9.52;;;;;;;;;;1039777;28;20053;-69
2023/12/20 00:09:28;;;;;;;14.73;9.52;;;;;;;;;;1038452;28;20048;-70
2023/12/20 00:09:59;;;;;;;15.07;9.32;;;;;;;;;;1038396;28;20060;-70
2023/12/20 00:10:29;;;;;;;15.52;9.70;;;;;;;;;;1040032;28;20073;-68
2023/12/20 00:11:00;;;;;;;12.32;9.35;;;;;;;;;;1041645;28;20711;-69
2023/12/20 00:11:30;;;;;;;15.95;10.15;;;;;;;;;;1038529;28;20056;-69
2023/12/20 00:12:01;;;;;;;15.35;9.60;;;;;;;;;;1037905;28;20041;-70
2023/12/20 00:12:31;;;;;;;15.45;9.82;;;;;;;;;;1039822;28;20053;-69
2023/12/20 00:13:02;;;;;;;16.83;10.63;;;;;;;;;;1038121;28;20057;-68
2023/12/20 00:13:32;;;;;;;15.35;9.98;;;;;;;;;;1040116;28;20040;-68
2023/12/20 00:14:03;;;;;;;18.48;9.70;;;;;;;;;;1038716;28;20073;-70
2023/12/20 00:14:33;;;;;;;12.52;9.13;;;;;;;;;;1039678;28;20433;-69
2023/12/20 00:15:04;;;;;;;12.93;9.00;;;;;;;;;;1041551;28;20042;-69
2023/12/20 00:15:35;;;;;;;16.02;9.18;;;;;;;;;;1037949;28;20041;-69
2023/12/20 00:16:06;;;;;;;13.15;8.93;;;;;;;;;;1038471;28;20679;-70
2023/12/20 00:16:36;;;;;;;12.90;8.65;;;;;;;;;;1038015;28;20477;-69
2023/12/20 00:17:07;;;;;;;14.43;9.60;;;;;;;;;;1037879;28;20951;-69
2023/12/20 00:17:38;;;;;;;12.60;9.25;;;;;;;;;;1038907;28;20413;-69
2023/12/20 00:18:08;;;;;;;14.40;9.57;;;;;;;;;;1039141;28;20469;-69
2023/12/20 00:18:39;;;;;;;12.88;8.60;;;;;;;;;;1039006;28;20457;-69
2023/12/20 00:19:09;;;;;;;12.93;8.70;;;;;;;;;;1039420;28;20460;-68
2023/12/20 00:19:40;;;;;;;13.32;9.48;;;;;;;;;;1041466;28;20068;-69
2023/12/20 00:20:11;;;;;;;13.75;8.55;;;;;;;;;;1041625;28;20048;-69
2023/12/20 00:20:41;;;;;;;13.73;9.13;;;;;;;;;;1039608;28;20053;-68
2023/12/20 00:21:12;;;;;;;13.68;9.75;;;;;;;;;;1041767;28;20780;-69
2023/12/20 00:21:42;;;;;;;12.38;8.88;;;;;;;;;;1037578;28;20132;-70
2023/12/20 00:22:13;;;;;;;15.43;9.48;;;;;;;;;;1039517;28;20045;-69
2023/12/20 00:22:43;;;;;;;15.27;9.27;;;;;;;;;;1042608;28;20053;-69
2023/12/20 00:23:13;;;;;;;13.63;9.15;;;;;;;;;;1042785;28;20095;-68
2023/12/20 00:23:44;;;;;;;16.42;9.68;;;;;;;;;;1039948;28;20045;-69
2023/12/20 00:24:15;;;;;;;13.45;9.20;;;;;;;;;;1039478;28;20053;-69
2023/12/20 00:24:45;;;;;;;12.65;8.73;;;;;;;;;;1039914;28;20485;-68
2023/12/20 00:25:16;;;;;;;13.27;9.35;;;;;;;;;;1038596;28;20049;-69
2023/12/20 00:25:47;;;;;;;12.80;9.05;;;;;;;;;;1039220;28;20491;-69
2023/12/20 00:26:17;;;;;;;14.07;8.75;;;;;;;;;;1038255;28;20752;-69
2023/12/20 00:26:48;;;;;;;12.02;8.88;;;;;;;;;;1039377;28;20042;-70
2023/12/20 00:27:18;;;;;;;13.00;8.65;;;;;;;;;;1038957;28;20464;-69
2023/12/20 00:27:49;;;;;;;13.32;8.32;;;;;;;;;;1041020;28;20159;-69
2023/12/20 00:28:19;;;;;;;16.08;9.60;;;;;;;;;;1042784;28;20038;-69
2023/12/20 00:28:50;;;;;;;12.43;8.57;;;;;;;;;;1038703;28;20037;-69
2023/12/20 00:29:20;;;;;;;12.82;8.82;;;;;;;;;;1041472;28;20053;-69
2023/12/20 00:29:51;;;;;;;13.75;9.15;;;;;;;;;;1038405;28;20637;-69
2023/12/20 00:30:21;;;;;;;12.60;8.85;;;;;;;;;;1040185;28;20045;-69
2023/12/20 00:30:52;;;;;;;13.57;8.27;;;;;;;;;;1039925;28;20041;-70
2023/12/20 00:31:23;;;;;;;14.45;8.75;;;;;;;;;;1040049;28;20492;-70
2023/12/20 00:31:53;;;;;;;13.43;8.88;;;;;;;;;;1038554;28;20049;-69
2023/12/20 00:32:24;;;;;;;11.57;8.10;;;;;;;;;;1039055;28;20080;-69
2023/12/20 00:32:55;;;;;;;10.75;7.65;;;;;;;;;;1039363;28;20132;-69
2023/12/20 00:33:26;;;;;;;13.50;8.18;;;;;;;;;;1038532;28;20060;-69
2023/12/20 00:33:56;;;;;;;13.05;8.15;;;;;;;;;;1040698;28;20052;-69
2023/12/20 00:34:27;;;;;;;12.10;8.65;;;;;;;;;;1039161;28;20053;-68
2023/12/20 00:34:58;;;;;;;11.07;8.18;;;;;;;;;;1041988;28;20451;-69
2023/12/20 00:35:28;;;;;;;14.23;8.07;;;;;;;;;;1042523;28;20068;-69
2023/12/20 00:35:58;;;;;;;13.57;8.35;;;;;;;;;;1042045;28;20045;-70
2023/12/20 00:36:29;;;;;;;11.27;7.95;;;;;;;;;;1040345;28;20037;-70
2023/12/20 00:36:59;;;;;;;13.05;8.23;;;;;;;;;;1042009;28;20057;-68
2023/12/20 00:37:30;;;;;;;11.68;7.75;;;;;;;;;;1039720;28;20764;-69
2023/12/20 00:38:01;;;;;;;14.80;8.10;;;;;;;;;;1039955;28;21848;-69
2023/12/20 00:38:31;;;;;;;12.07;8.68;;;;;;;;;;1038764;28;20048;-69
2023/12/20 00:39:03;;;;;;;13.77;8.35;;;;;;;;;;1039951;28;20497;-70
2023/12/20 00:39:33;;;;;;;11.80;8.35;;;;;;;;;;1040032;28;20489;-69
2023/12/20 00:40:04;;;;;;;10.45;7.97;;;;;;;;;;1040332;28;20044;-69
2023/12/20 00:40:35;;;;;;;11.57;7.90;;;;;;;;;;1038770;28;20041;-69
2023/12/20 00:41:05;;;;;;;10.40;8.07;;;;;;;;;;1040145;28;20053;-69
2023/12/20 00:41:36;;;;;;;11.57;8.40;;;;;;;;;;1041290;28;20037;-69
2023/12/20 00:42:07;;;;;;;12.85;7.65;;;;;;;;;;1041895;28;20105;-69
2023/12/20 00:42:37;;;;;;;10.95;7.25;;;;;;;;;;1039419;28;20049;-69
2023/12/20 00:43:08;;;;;;;10.52;7.90;;;;;;;;;;1041533;28;20041;-69
2023/12/20 00:43:38;;;;;;;12.13;7.47;;;;;;;;;;1040478;28;20062;-69
2023/12/20 00:44:09;;;;;;;11.82;7.32;;;;;;;;;;1042366;28;20040;-69
2023/12/20 00:44:40;;;;;;;10.38;7.90;;;;;;;;;;1040222;28;20053;-68
2023/12/20 00:45:10;;;;;;;10.57;7.50;;;;;;;;;;1038873;28;20139;-70
2023/12/20 00:45:41;;;;;;;11.10;7.55;;;;;;;;;;1037992;28;20049;-69
2023/12/20 00:46:11;;;;;;;10.75;7.55;;;;;;;;;;1041132;28;20163;-69
2023/12/20 00:46:42;;;;;;;11.93;8.05;;;;;;;;;;1038514;28;20045;-68
2023/12/20 00:47:13;;;;;;;12.80;7.20;;;;;;;;;;1038915;28;20140;-69
2023/12/20 00:47:43;;;;;;;9.73;7.25;;;;;;;;;;1039667;28;20049;-68
2023/12/20 00:48:14;;;;;;;12.45;7.90;;;;;;;;;;1039307;28;20053;-69
2023/12/20 00:48:45;;;;;;;10.32;7.13;;;;;;;;;;1039845;28;20518;-69
2023/12/20 00:49:16;;;;;;;14.52;7.38;;;;;;;;;;1038988;28;20170;-69
2023/12/20 00:49:46;;;;;;;11.30;7.72;;;;;;;;;;1038456;28;20053;-69
2023/12/20 00:50:16;;;;;;;9.93;6.88;;;;;;;;;;1040543;28;20693;-69
2023/12/20 00:50:47;;;;;;;11.73;7.28;;;;;;;;;;1038546;28;20053;-70
2023/12/20 00:51:18;;;;;;;10.20;6.97;;;;;;;;;;1039879;28;20048;-69
2023/12/20 00:51:50;;;;;;;11.20;7.22;;;;;;;;;;1039817;28;20052;-69
2023/12/20 00:52:22;;;;;;;12.50;7.72;;;;;;;;;;1038374;28;20145;-68
2023/12/20 00:52:54;;;;;;;10.65;7.60;;;;;;;;;;1038096;28;20159;-69
2023/12/20 00:53:25;;;;;;;11.40;7.65;;;;;;;;;;1038369;28;20103;-68
2023/12/20 00:53:55;;;;;;;11.48;7.15;;;;;;;;;;1039408;28;20100;-68
2023/12/20 00:54:26;;;;;;;12.95;7.57;;;;;;;;;;1041236;28;20560;-69
2023/12/20 00:54:56;;;;;;;11.52;7.72;;;;;;;;;;1038403;28;20050;-68
2023/12/20 00:55:27;;;;;;;10.80;7.72;;;;;;;;;;1040901;28;20055;-67
2023/12/20 00:55:58;;;;;;;11.68;7.30;;;;;;;;;;1041390;28;20049;-70
2023/12/20 00:56:29;;;;;;;9.38;6.93;;;;;;;;;;1041655;28;20052;-69
2023/12/20 00:56:59;;;;;;;8.88;7.10;;;;;;;;;;1042307;28;20055;-69
2023/12/20 00:57:31;;;;;;;10.98;7.30;;;;;;;;;;1039989;28;20091;-70
2023/12/20 00:58:01;;;;;;;10.73;7.25;;;;;;;;;;1038976;28;20049;-70
2023/12/20 00:58:32;;;;;;;9.55;7.03;;;;;;;;;;1043746;28;20056;-69
2023/12/20 00:59:02;;;;;;;10.48;7.30;;;;;;;;;;1043392;28;20091;-69
2023/12/20 00:59:33;;;;;;;11.23;7.75;;;;;;;;;;1040641;28;20041;-69
2023/12/20 01:00:04;;;;;;;9.38;6.82;;;;;;;;;;1040250;28;20884;-70
2023/12/20 01:00:35;;;;;;;9.75;6.65;;;;;;;;;;1040306;28;20041;-68
2023/12/20 01:01:05;;;;;;;12.75;7.78;;;;;;;;;;1040199;28;20816;-68
2023/12/20 01:01:36;;;;;;;9.18;6.88;;;;;;;;;;1039824;28;20044;-70
2023/12/20 01:02:06;;;;;;;12.90;7.72;;;;;;;;;;1040110;28;20047;-70
2023/12/20 01:02:37;;;;;;;9.93;6.90;;;;;;;;;;1040603;28;20076;-69
2023/12/20 01:03:07;;;;;;;9.55;6.70;;;;;;;;;;1037788;28;20440;-69
2023/12/20 01:03:38;;;;;;;11.32;7.03;;;;;;;;;;1039905;28;20044;-70
2023/12/20 01:04:09;;;;;;;9.63;6.75;;;;;;;;;;1039898;28;20060;-70
2023/12/20 01:04:40;;;;;;;10.75;7.68;;;;;;;;;;1041093;28;20540;-68
2023/12/20 01:05:10;;;;;;;10.70;7.43;;;;;;;;;;1042519;28;22171;-69
2023/12/20 01:05:41;;;;;;;12.27;7.47;;;;;;;;;;1040596;28;20048;-70
2023/12/20 01:06:11;;;;;;;12.15;7.72;;;;;;;;;;1039665;28;20045;-69
2023/12/20 01:06:42;;;;;;;11.05;7.40;;;;;;;;;;1041390;28;20045;-69
2023/12/20 01:07:12;;;;;;;10.35;7.22;;;;;;;;;;1040796;28;20463;-69
2023/12/20 01:07:43;;;;;;;12.55;8.38;;;;;;;;;;1039078;28;20107;-70
2023/12/20 01:08:13;;;;;;;11.15;7.50;;;;;;;;;;1039153;28;20068;-70
2023/12/20 01:08:44;;;;;;;10.98;7.47;;;;;;;;;;1038920;28;20172;-69
2023/12/20 01:09:15;;;;;;;12.73;8.82;;;;;;;;;;1040932;28;20037;-68
2023/12/20 01:09:45;;;;;;;12.18;7.45;;;;;;;;;;1037879;28;20060;-70
2023/12/20 01:10:17;;;;;;;11.63;7.05;;;;;;;;;;1040073;28;20057;-69
2023/12/20 01:10:47;;;;;;;11.52;7.93;;;;;;;;;;1038086;28;20077;-69
2023/12/20 01:11:18;;;;;;;9.80;7.45;;;;;;;;;;1040795;28;20060;-69
2023/12/20 01:11:49;;;;;;;10.57;7.10;;;;;;;;;;1040326;28;20490;-69
2023/12/20 01:12:20;;;;;;;9.65;7.03;;;;;;;;;;1039742;28;20152;-68
2023/12/20 01:12:50;;;;;;;10.70;7.28;;;;;;;;;;1034450;28;20081;-69
2023/12/20 01:13:21;;;;;;;9.40;6.75;;;;;;;;;;1034130;28;20501;-69
2023/12/20 01:13:51;;;;;;;10.85;7.40;;;;;;;;;;1034325;28;20049;-68
2023/12/20 01:14:22;;;;;;;10.32;7.32;;;;;;;;;;1036603;28;20046;-68
2023/12/20 01:14:52;;;;;;;9.27;7.50;;;;;;;;;;1040138;28;20464;-70
2023/12/20 01:15:23;;;;;;;10.10;7.10;;;;;;;;;;1038423;28;20045;-70
2023/12/20 01:15:53;;;;;;;10.35;8.15;;;;;;;;;;1038528;28;20042;-69
2023/12/20 01:16:24;;;;;;;12.88;7.75;;;;;;;;;;1034639;28;20568;-69
2023/12/20 01:16:54;;;;;;;14.57;7.75;;;;;;;;;;1038539;28;20057;-69
2023/12/20 01:17:25;;;;;;;10.00;7.13;;;;;;;;;;1037398;28;20048;-70
2023/12/20 01:17:56;;;;;;;10.50;6.63;;;;;;;;;;1037674;28;20050;-69
2023/12/20 01:18:27;;;;;;;10.52;7.63;;;;;;;;;;1039189;28;20088;-69
2023/12/20 01:18:58;;;;;;;9.55;7.47;;;;;;;;;;1041748;28;20044;-68
2023/12/20 01:19:29;;;;;;;11.65;8.18;;;;;;;;;;1041366;28;20424;-69
2023/12/20 01:20:00;;;;;;;12.70;7.53;;;;;;;;;;1038712;28;20049;-69
2023/12/20 01:20:31;;;;;;;10.45;7.80;;;;;;;;;;1039525;28;20098;-70
2023/12/20 01:21:03;;;;;;;8.85;6.93;;;;;;;;;;1038339;28;20112;-68
2023/12/20 01:21:33;;;;;;;12.32;7.70;;;;;;;;;;1040767;28;20049;-68
2023/12/20 01:22:04;;;;;;;13.27;7.53;;;;;;;;;;1041630;28;20041;-69
2023/12/20 01:22:35;;;;;;;10.18;7.50;;;;;;;;;;1039639;28;20073;-69
2023/12/20 01:23:06;;;;;;;11.23;6.82;;;;;;;;;;1039699;28;20033;-69
2023/12/20 01:23:36;;;;;;;11.02;7.43;;;;;;;;;;1040012;28;20064;-69
2023/12/20 01:24:07;;;;;;;9.40;7.50;;;;;;;;;;1041626;28;20048;-68
2023/12/20 01:24:37;;;;;;;10.80;7.82;;;;;;;;;;1037722;28;20637;-70
2023/12/20 01:25:08;;;;;;;13.57;7.10;;;;;;;;;;1040214;28;20041;-69
2023/12/20 01:25:39;;;;;;;11.07;7.63;;;;;;;;;;1039125;28;20047;-69
2023/12/20 01:26:09;;;;;;;10.10;7.68;;;;;;;;;;1042166;28;20049;-69
2023/12/20 01:26:40;;;;;;;12.05;7.65;;;;;;;;;;1039513;28;20049;-69
2023/12/20 01:27:10;;;;;;;11.77;7.43;;;;;;;;;;1040173;28;20053;-69
2023/12/20 01:27:41;;;;;;;9.68;6.80;;;;;;;;;;1039134;28;20049;-68
2023/12/20 01:28:11;;;;;;;9.13;7.72;;;;;;;;;;1041669;28;20807;-69
2023/12/20 01:28:43;;;;;;;11.30;7.65;;;;;;;;;;1039536;28;20560;-69
2023/12/20 01:29:14;;;;;;;10.38;7.35;;;;;;;;;;1039973;28;20529;-69
2023/12/20 01:29:44;;;;;;;15.07;7.93;;;;;;;;;;1038058;28;20111;-69
2023/12/20 01:30:15;;;;;;;11.32;7.25;;;;;;;;;;1039030;28;20053;-69
2023/12/20 01:30:45;;;;;;;10.82;6.93;;;;;;;;;;1039289;28;20045;-70
2023/12/20 01:31:16;;;;;;;11.15;7.40;;;;;;;;;;1038585;28;20053;-70
2023/12/20 01:31:46;;;;;;;10.35;7.30;;;;;;;;;;1039072;28;20191;-69
2023/12/20 01:32:17;;;;;;;14.68;8.10;;;;;;;;;;1040250;28;20432;-69
2023/12/20 01:32:47;;;;;;;10.90;7.38;;;;;;;;;;1038793;28;20408;-69
2023/12/20 01:33:18;;;;;;;12.40;7.47;;;;;;;;;;1037770;28;20716;-70
2023/12/20 01:33:48;;;;;;;9.82;7.28;;;;;;;;;;1037710;28;20076;-69
2023/12/20 01:34:19;;;;;;;11.65;7.45;;;;;;;;;;1039258;28;20044;-69
2023/12/20 01:34:49;;;;;;;10.55;7.57;;;;;;;;;;1039876;28;20041;-69
2023/12/20 01:35:20;;;;;;;10.98;6.93;;;;;;;;;;1039538;28;20114;-69
2023/12/20 01:35:50;;;;;;;11.13;7.30;;;;;;;;;;1040154;28;20057;-69
2023/12/20 01:36:21;;;;;;;9.77;7.20;;;;;;;;;;1038519;28;20064;-70
2023/12/20 01:36:52;;;;;;;10.95;6.68;;;;;;;;;;1039564;28;20806;-69
2023/12/20 01:37:23;;;;;;;9.85;6.70;;;;;;;;;;1039164;28;20131;-69
2023/12/20 01:37:56;;;;;;;13.10;7.18;;;;;;;;;;1038349;28;20087;-68
2023/12/20 01:38:27;;;;;;;11.20;7.30;;;;;;;;;;1039256;28;20041;-69
2023/12/20 01:38:58;;;;;;;11.05;6.65;;;;;;;;;;1037796;28;20048;-69
2023/12/20 01:39:28;;;;;;;12.40;7.88;;;;;;;;;;1040254;28;20470;-69
2023/12/20 01:39:59;;;;;;;11.18;7.85;;;;;;;;;;1039542;28;20049;-69
2023/12/20 01:40:29;;;;;;;13.35;7.30;;;;;;;;;;1040660;28;20048;-69
2023/12/20 01:41:00;;;;;;;11.75;7.28;;;;;;;;;;1039060;28;20064;-69
2023/12/20 01:41:30;;;;;;;10.70;7.15;;;;;;;;;;1038732;28;20507;-69
2023/12/20 01:42:02;;;;;;;10.50;6.63;;;;;;;;;;1040634;28;20053;-69
2023/12/20 01:42:32;;;;;;;13.52;7.22;;;;;;;;;;1039411;28;20136;-69
2023/12/20 01:43:08;;;;;;;8.00;6.50;;;;;;;;;;1039637;28;20049;-69
2023/12/20 01:43:38;;;;;;;11.05;6.63;;;;;;;;;;1037380;28;20065;-69
2023/12/20 01:44:09;;;;;;;10.40;7.30;;;;;;;;;;1039855;28;20053;-69
2023/12/20 01:44:39;;;;;;;11.13;6.85;;;;;;;;;;1038522;28;20056;-69
2023/12/20 01:45:10;;;;;;;9.65;7.20;;;;;;;;;;1039510;28;20147;-70
2023/12/20 01:45:40;;;;;;;17.02;7.60;;;;;;;;;;1037441;28;20429;-69
2023/12/20 01:46:12;;;;;;;11.70;8.05;;;;;;;;;;1038273;28;20239;-68
2023/12/20 01:46:42;;;;;;;11.27;7.35;;;;;;;;;;1038932;28;20937;-69
2023/12/20 01:47:13;;;;;;;13.43;7.28;;;;;;;;;;1038909;28;20506;-69
2023/12/20 01:47:43;;;;;;;13.23;7.88;;;;;;;;;;1038256;28;20038;-69
2023/12/20 01:48:16;;;;;;;9.73;6.88;;;;;;;;;;1042617;28;20175;-69
2023/12/20 01:48:48;;;;;;;10.80;6.75;;;;;;;;;;1040791;28;20048;-70
2023/12/20 01:49:19;;;;;;;9.30;6.82;;;;;;;;;;1039565;28;20067;-70
2023/12/20 01:49:49;;;;;;;12.18;6.82;;;;;;;;;;1039296;28;20060;-68
2023/12/20 01:50:21;;;;;;;10.45;7.25;;;;;;;;;;1038696;28;20064;-69
2023/12/20 01:50:52;;;;;;;10.95;6.95;;;;;;;;;;1040196;28;20610;-68
2023/12/20 01:51:23;;;;;;;9.23;7.30;;;;;;;;;;1040359;28;20740;-68
2023/12/20 01:51:54;;;;;;;11.55;6.90;;;;;;;;;;1040767;28;20041;-69
2023/12/20 01:52:26;;;;;;;15.85;7.38;;;;;;;;;;1040377;28;20043;-69
2023/12/20 01:52:59;;;;;;;8.25;6.15;;;;;;;;;;1039143;28;20053;-69
2023/12/20 01:53:32;;;;;;;10.45;6.45;;;;;;;;;;1038113;28;20052;-69
2023/12/20 01:54:03;;;;;;;11.18;7.07;;;;;;;;;;1040239;28;20066;-69
2023/12/20 01:54:35;;;;;;;13.13;7.80;;;;;;;;;;1039217;28;20037;-68
2023/12/20 01:55:12;;;;;;;12.38;7.03;;;;;;;;;;1038855;28;20128;-70
2023/12/20 01:55:44;;;;;;;12.90;6.43;;;;;;;;;;1041082;28;20049;-68
2023/12/20 01:56:15;;;;;;;10.93;6.57;;;;;;;;;;1042514;28;20068;-69
2023/12/20 01:56:46;;;;;;;9.07;7.20;;;;;;;;;;1039688;28;20565;-69
2023/12/20 01:57:16;;;;;;;10.45;6.55;;;;;;;;;;1039224;28;20769;-69
2023/12/20 01:57:47;;;;;;;7.85;5.88;;;;;;;;;;1039373;28;20080;-67
2023/12/20 01:58:18;;;;;;;11.10;7.15;;;;;;;;;;1039670;28;20485;-69
2023/12/20 01:58:49;;;;;;;11.63;6.97;;;;;;;;;;1038186;28;20080;-68
2023/12/20 01:59:21;;;;;;;9.10;6.78;;;;;;;;;;1039100;28;20048;-69
2023/12/20 01:59:51;;;;;;;9.90;7.63;;;;;;;;;;1041043;28;20100;-69
2023/12/20 02:00:23;;;;;;;9.95;6.80;;;;;;;;;;1040351;28;20048;-69
2023/12/20 02:00:54;;;;;;;10.15;6.60;;;;;;;;;;1041369;28;20051;-69
2023/12/20 02:01:25;;;;;;;9.60;6.38;;;;;;;;;;1041052;28;20053;-70
2023/12/20 02:01:55;;;;;;;10.98;6.38;;;;;;;;;;1039332;28;20060;-69
2023/12/20 02:02:28;;;;;;;10.52;6.82;;;;;;;;;;1040581;28;20053;-69
2023/12/20 02:03:01;;;;;;;9.95;6.63;;;;;;;;;;1039568;28;20049;-69
2023/12/20 02:03:31;;;;;;;9.32;6.45;;;;;;;;;;1039061;28;20053;-68
2023/12/20 02:04:02;;;;;;;9.88;6.65;;;;;;;;;;1039496;28;20045;-69
2023/12/20 02:04:32;;;;;;;9.13;6.57;;;;;;;;;;1040034;28;20041;-69
2023/12/20 02:05:03;;;;;;;10.05;6.50;;;;;;;;;;1038046;28;20124;-69
2023/12/20 02:05:36;;;;;;;11.55;6.97;;;;;;;;;;1038123;28;20044;-69
2023/12/20 02:06:08;;;;;;;8.73;6.10;;;;;;;;;;1040334;28;20152;-69
2023/12/20 02:06:40;;;;;;;11.05;6.15;;;;;;;;;;1040020;28;20045;-70
2023/12/20 02:07:11;;;;;;;8.25;6.35;;;;;;;;;;1041749;28;20049;-69
2023/12/20 02:07:42;;;;;;;10.90;6.88;;;;;;;;;;1038689;28;20100;-69
2023/12/20 02:08:13;;;;;;;8.57;6.45;;;;;;;;;;1040915;28;20102;-69
2023/12/20 02:08:43;;;;;;;9.20;6.40;;;;;;;;;;1038365;28;20056;-69
2023/12/20 02:09:14;;;;;;;8.73;6.35;;;;;;;;;;1039136;28;20386;-68
2023/12/20 02:09:46;;;;;;;10.95;6.57;;;;;;;;;;1040169;28;20397;-69
2023/12/20 02:10:16;;;;;;;9.02;6.45;;;;;;;;;;1040589;28;20084;-69
2023/12/20 02:10:47;;;;;;;13.05;6.43;;;;;;;;;;1039585;28;20131;-69
2023/12/20 02:11:18;;;;;;;8.38;6.10;;;;;;;;;;1038870;28;20041;-68
2023/12/20 02:11:49;;;;;;;10.30;5.90;;;;;;;;;;1038503;28;20050;-69
2023/12/20 02:12:20;;;;;;;9.00;6.32;;;;;;;;;;1039946;28;20045;-70
2023/12/20 02:12:50;;;;;;;7.70;5.90;;;;;;;;;;1040072;28;20095;-69
2023/12/20 02:13:21;;;;;;;13.75;6.63;;;;;;;;;;1039779;28;20053;-69
2023/12/20 02:13:51;;;;;;;8.98;6.20;;;;;;;;;;1041802;28;20484;-70
2023/12/20 02:14:22;;;;;;;8.93;6.43;;;;;;;;;;1039253;28;20156;-68
2023/12/20 02:14:53;;;;;;;9.23;6.90;;;;;;;;;;1039240;28;20033;-69
2023/12/20 02:15:24;;;;;;;8.30;5.97;;;;;;;;;;1038000;28;20424;-70
2023/12/20 02:15:55;;;;;;;8.90;6.07;;;;;;;;;;1038710;28;20425;-69
2023/12/20 02:16:25;;;;;;;9.00;6.22;;;;;;;;;;1038516;28;20111;-70
2023/12/20 02:16:56;;;;;;;9.73;6.35;;;;;;;;;;1037981;28;20419;-69
2023/12/20 02:17:27;;;;;;;7.45;5.88;;;;;;;;;;1039439;28;20714;-69
2023/12/20 02:17:58;;;;;;;10.35;6.53;;;;;;;;;;1038450;28;20048;-69
2023/12/20 02:18:29;;;;;;;8.07;5.90;;;;;;;;;;1040000;28;20045;-69
2023/12/20 02:19:00;;;;;;;7.72;5.75;;;;;;;;;;1041706;28;20060;-70
2023/12/20 02:19:31;;;;;;;7.93;6.13;;;;;;;;;;1039428;28;20397;-70
2023/12/20 02:20:02;;;;;;;8.18;6.10;;;;;;;;;;1039664;28;20037;-69
2023/12/20 02:20:33;;;;;;;9.77;6.68;;;;;;;;;;1040275;28;20042;-69
2023/12/20 02:21:05;;;;;;;7.88;5.95;;;;;;;;;;1041337;28;20752;-70
2023/12/20 02:21:36;;;;;;;10.73;6.50;;;;;;;;;;1038978;28;20037;-69
2023/12/20 02:22:10;;;;;;;11.10;6.45;;;;;;;;;;1039765;28;20049;-69
2023/12/20 02:22:41;;;;;;;6.95;5.65;;;;;;;;;;1039878;28;20045;-69
2023/12/20 02:23:11;;;;;;;8.23;6.15;;;;;;;;;;1038815;28;20057;-69
2023/12/20 02:23:42;;;;;;;10.43;6.43;;;;;;;;;;1038766;28;20099;-69
2023/12/20 02:24:12;;;;;;;10.15;5.90;;;;;;;;;;1038611;28;20045;-70
2023/12/20 02:24:43;;;;;;;10.07;6.15;;;;;;;;;;1038135;28;20778;-69
2023/12/20 02:25:13;;;;;;;7.72;6.13;;;;;;;;;;1039606;28;20803;-69
2023/12/20 02:25:44;;;;;;;10.38;6.20;;;;;;;;;;1038030;28;20073;-68
2023/12/20 02:26:15;;;;;;;7.05;5.55;;;;;;;;;;1041225;28;20053;-69
2023/12/20 02:26:45;;;;;;;8.82;6.00;;;;;;;;;;1041729;28;20339;-67
2023/12/20 02:27:19;;;;;;;7.97;5.57;;;;;;;;;;1039707;28;20451;-69
2023/12/20 02:27:50;;;;;;;7.45;5.55;;;;;;;;;;1039580;28;20512;-69
2023/12/20 02:28:22;;;;;;;9.30;6.15;;;;;;;;;;1040580;28;20049;-69
2023/12/20 02:28:53;;;;;;;8.40;5.43;;;;;;;;;;1040683;28;20055;-69
2023/12/20 02:29:23;;;;;;;10.10;6.47;;;;;;;;;;1038994;28;20049;-69
2023/12/20 02:29:54;;;;;;;10.35;6.50;;;;;;;;;;1039036;28;20053;-68
2023/12/20 02:30:24;;;;;;;10.63;5.30;;;;;;;;;;1039041;28;20045;-69
2023/12/20 02:30:55;;;;;;;7.93;5.22;;;;;;;;;;1040652;28;20068;-70
2023/12/20 02:31:26;;;;;;;9.93;6.38;;;;;;;;;;1042171;28;20033;-68
2023/12/20 02:31:56;;;;;;;7.50;5.38;;;;;;;;;;1039614;28;20048;-68
2023/12/20 02:32:27;;;;;;;9.15;6.05;;;;;;;;;;1039400;28;20056;-69
2023/12/20 02:33:00;;;;;;;8.63;6.00;;;;;;;;;;1040608;28;20076;-69
2023/12/20 02:33:31;;;;;;;7.95;5.97;;;;;;;;;;1038382;28;20049;-68
2023/12/20 02:34:01;;;;;;;8.35;5.75;;;;;;;;;;1039505;28;20049;-69
2023/12/20 02:34:32;;;;;;;8.23;5.65;;;;;;;;;;1038208;28;20046;-69
2023/12/20 02:35:02;;;;;;;9.82;6.15;;;;;;;;;;1039966;28;20647;-69
2023/12/20 02:35:33;;;;;;;8.75;5.82;;;;;;;;;;1038399;28;20076;-70
2023/12/20 02:36:04;;;;;;;9.15;5.45;;;;;;;;;;1039236;28;20461;-70
2023/12/20 02:36:34;;;;;;;7.53;5.75;;;;;;;;;;1039587;28;20503;-69
2023/12/20 02:37:05;;;;;;;9.77;5.97;;;;;;;;;;1040016;28;20064;-68
2023/12/20 02:37:35;;;;;;;15.23;6.55;;;;;;;;;;1040470;28;20049;-69
2023/12/20 02:38:06;;;;;;;7.75;5.53;;;;;;;;;;1038191;28;20453;-69
2023/12/20 02:38:36;;;;;;;8.80;6.00;;;;;;;;;;1039595;28;20049;-68
2023/12/20 02:39:08;;;;;;;9.90;6.63;;;;;;;;;;1041452;28;20922;-69
2023/12/20 02:39:38;;;;;;;10.65;6.65;;;;;;;;;;1039335;28;20114;-69
2023/12/20 02:40:09;;;;;;;8.68;6.15;;;;;;;;;;1040137;28;20049;-69
2023/12/20 02:40:39;;;;;;;8.13;5.38;;;;;;;;;;1039149;28;20062;-69
2023/12/20 02:41:10;;;;;;;10.77;6.28;;;;;;;;;;1039039;28;20057;-69
2023/12/20 02:41:40;;;;;;;14.25;6.07;;;;;;;;;;1039212;28;20057;-68
2023/12/20 02:42:11;;;;;;;7.63;5.43;;;;;;;;;;1041198;28;20039;-69
2023/12/20 02:42:41;;;;;;;9.13;6.35;;;;;;;;;;1041123;28;20072;-70
2023/12/20 02:43:12;;;;;;;9.32;6.43;;;;;;;;;;1040036;28;20045;-69
2023/12/20 02:43:42;;;;;;;11.02;6.60;;;;;;;;;;1038424;28;20382;-68
2023/12/20 02:44:13;;;;;;;8.43;6.00;;;;;;;;;;1038842;28;20049;-69
2023/12/20 02:44:43;;;;;;;9.38;6.78;;;;;;;;;;1040105;28;20049;-69
2023/12/20 02:45:14;;;;;;;8.90;6.13;;;;;;;;;;1039928;28;20055;-68
2023/12/20 02:45:45;;;;;;;9.50;6.05;;;;;;;;;;1040294;28;20457;-70
2023/12/20 02:46:16;;;;;;;8.98;5.93;;;;;;;;;;1039093;28;20056;-68
2023/12/20 02:46:47;;;;;;;8.27;5.78;;;;;;;;;;1039083;28;20060;-68
2023/12/20 02:47:18;;;;;;;7.18;5.45;;;;;;;;;;1041001;28;20041;-69
2023/12/20 02:47:48;;;;;;;8.90;6.18;;;;;;;;;;1039191;28;20049;-68
2023/12/20 02:48:19;;;;;;;7.15;5.10;;;;;;;;;;1038556;28;20052;-70
2023/12/20 02:48:49;;;;;;;8.07;6.03;;;;;;;;;;1038279;28;20076;-69
2023/12/20 02:49:20;;;;;;;8.15;5.57;;;;;;;;;;1038708;28;20045;-69
2023/12/20 02:49:50;;;;;;;8.75;6.50;;;;;;;;;;1040729;28;20489;-68
2023/12/20 02:50:21;;;;;;;11.13;7.25;;;;;;;;;;1039112;28;20055;-69
2023/12/20 02:50:52;;;;;;;8.00;6.30;;;;;;;;;;1039708;28;20045;-68
2023/12/20 02:51:23;;;;;;;8.98;5.45;;;;;;;;;;1041933;28;20051;-68
2023/12/20 02:51:53;;;;;;;10.43;6.28;;;;;;;;;;1042381;28;20048;-70
2023/12/20 02:52:24;;;;;;;9.68;5.82;;;;;;;;;;1040009;28;20040;-69
2023/12/20 02:52:55;;;;;;;9.55;5.82;;;;;;;;;;1038710;28;20057;-68
2023/12/20 02:53:25;;;;;;;9.45;6.30;;;;;;;;;;1040541;28;20060;-69
2023/12/20 02:53:56;;;;;;;8.73;6.93;;;;;;;;;;1039414;28;20067;-69
2023/12/20 02:54:26;;;;;;;10.52;6.18;;;;;;;;;;1039213;28;20727;-69
2023/12/20 02:54:57;;;;;;;7.40;6.22;;;;;;;;;;1042616;28;20053;-68
2023/12/20 02:55:27;;;;;;;9.88;6.95;;;;;;;;;;1040736;28;20069;-69
2023/12/20 02:55:58;;;;;;;9.20;6.25;;;;;;;;;;1040587;28;20036;-69
2023/12/20 02:56:28;;;;;;;8.43;6.20;;;;;;;;;;1039863;28;20702;-68
2023/12/20 02:56:59;;;;;;;9.18;6.25;;;;;;;;;;1038779;28;20059;-68
2023/12/20 02:57:29;;;;;;;8.43;6.20;;;;;;;;;;1040379;28;20110;-68
2023/12/20 02:58:00;;;;;;;8.85;6.47;;;;;;;;;;1040712;28;21917;-70
2023/12/20 02:58:30;;;;;;;10.82;6.68;;;;;;;;;;1038578;28;20486;-69
2023/12/20 02:59:01;;;;;;;10.20;7.30;;;;;;;;;;1038569;28;20038;-68
2023/12/20 02:59:32;;;;;;;10.55;6.65;;;;;;;;;;1039028;28;20052;-68
2023/12/20 03:00:03;;;;;;;9.68;6.47;;;;;;;;;;1040529;28;20065;-69
2023/12/20 03:00:34;;;;;;;14.60;6.72;;;;;;;;;;1039691;28;20037;-68
2023/12/20 03:01:04;;;;;;;11.60;6.32;;;;;;;;;;1040191;28;20041;-68
2023/12/20 03:01:35;;;;;;;8.15;6.38;;;;;;;;;;1037971;28;20053;-67
2023/12/20 03:02:05;;;;;;;8.52;6.18;;;;;;;;;;1040431;28;20049;-68
2023/12/20 03:02:36;;;;;;;10.30;6.75;;;;;;;;;;1040157;28;20416;-69
2023/12/20 03:03:06;;;;;;;8.65;5.82;;;;;;;;;;1037993;28;20195;-69